sensor_id;sensor_type;location;lat;lon;timestamp;pressure;altitude;pressure_sealevel;temperature;humidity
63321;BME280;49449;48.800;9.534;2023-04-05T00:00:52;99139.66;;;3.21;33.17
63321;BME280;49449;48.800;9.534;2023-04-05T00:03:22;99131.34;;;3.17;32.88
63321;BME280;49449;48.800;9.534;2023-04-05T00:05:50;99134.44;;;3.13;33.38
63321;BME280;49449;48.800;9.534;2023-04-05T00:08:20;99136.88;;;3.14;33.52
63321;BME280;49449;48.800;9.534;2023-04-05T00:10:52;99126.78;;;3.11;33.38
63321;BME280;49449;48.800;9.534;2023-04-05T00:13:20;99133.94;;;3.09;33.23
63321;BME280;49449;48.800;9.534;2023-04-05T00:15:48;99132.34;;;3.08;33.52
63321;BME280;49449;48.800;9.534;2023-04-05T00:18:16;99128.25;;;3.05;33.26
63321;BME280;49449;48.800;9.534;2023-04-05T00:20:51;99120.41;;;3.05;33.21
63321;BME280;49449;48.800;9.534;2023-04-05T00:23:19;99129.25;;;3.04;33.27
63321;BME280;49449;48.800;9.534;2023-04-05T00:25:48;99118.97;;;3.03;34.17
63321;BME280;49449;48.800;9.534;2023-04-05T00:28:16;99112.94;;;3.02;33.48
63321;BME280;49449;48.800;9.534;2023-04-05T00:30:43;99117.16;;;3.03;33.27
63321;BME280;49449;48.800;9.534;2023-04-05T00:33:11;99111.94;;;3.03;33.06
63321;BME280;49449;48.800;9.534;2023-04-05T00:35:39;99109.47;;;3.02;32.88
63321;BME280;49449;48.800;9.534;2023-04-05T00:38:08;99104.41;;;3.00;33.51
63321;BME280;49449;48.800;9.534;2023-04-05T00:40:36;99098.72;;;2.97;33.89
63321;BME280;49449;48.800;9.534;2023-04-05T00:43:04;99107.69;;;2.94;33.22
63321;BME280;49449;48.800;9.534;2023-04-05T00:45:32;99099.72;;;2.96;33.30
63321;BME280;49449;48.800;9.534;2023-04-05T00:48:00;99103.28;;;2.95;33.31
63321;BME280;49449;48.800;9.534;2023-04-05T00:50:28;99094.81;;;2.93;33.75
63321;BME280;49449;48.800;9.534;2023-04-05T00:52:56;99096.94;;;2.89;33.15
63321;BME280;49449;48.800;9.534;2023-04-05T00:55:26;99094.31;;;2.89;33.35
63321;BME280;49449;48.800;9.534;2023-04-05T00:57:54;99091.06;;;2.87;34.03
63321;BME280;49449;48.800;9.534;2023-04-05T01:00:22;99084.38;;;2.84;33.41
63321;BME280;49449;48.800;9.534;2023-04-05T01:02:54;99087.16;;;2.83;33.78
63321;BME280;49449;48.800;9.534;2023-04-05T01:05:33;99084.38;;;2.84;33.97
63321;BME280;49449;48.800;9.534;2023-04-05T01:08:09;99077.38;;;2.85;34.29
63321;BME280;49449;48.800;9.534;2023-04-05T01:10:47;99070.03;;;2.80;34.25
63321;BME280;49449;48.800;9.534;2023-04-05T01:13:17;99076.88;;;2.81;33.73
63321;BME280;49449;48.800;9.534;2023-04-05T01:15:45;99068.56;;;2.78;33.60
63321;BME280;49449;48.800;9.534;2023-04-05T01:18:13;99067.56;;;2.79;33.74
63321;BME280;49449;48.800;9.534;2023-04-05T01:20:44;99069.53;;;2.77;34.07
63321;BME280;49449;48.800;9.534;2023-04-05T01:23:35;99065.63;;;2.73;34.50
63321;BME280;49449;48.800;9.534;2023-04-05T01:26:45;99059.75;;;2.71;35.27
63321;BME280;49449;48.800;9.534;2023-04-05T01:29:44;99059.25;;;2.67;34.47
63321;BME280;49449;48.800;9.534;2023-04-05T01:32:21;99049.00;;;2.65;35.28
63321;BME280;49449;48.800;9.534;2023-04-05T01:34:55;99049.97;;;2.64;35.23
63321;BME280;49449;48.800;9.534;2023-04-05T01:37:30;99048.50;;;2.62;34.81
63321;BME280;49449;48.800;9.534;2023-04-05T01:39:59;99053.88;;;2.60;34.61
63321;BME280;49449;48.800;9.534;2023-04-05T01:42:28;99052.25;;;2.59;34.43
63321;BME280;49449;48.800;9.534;2023-04-05T01:44:57;99049.16;;;2.56;34.90
63321;BME280;49449;48.800;9.534;2023-04-05T01:47:25;99045.41;;;2.58;33.93
63321;BME280;49449;48.800;9.534;2023-04-05T01:49:52;99044.56;;;2.58;34.52
63321;BME280;49449;48.800;9.534;2023-04-05T01:52:20;99040.34;;;2.57;33.67
63321;BME280;49449;48.800;9.534;2023-04-05T01:54:48;99045.25;;;2.52;34.33
63321;BME280;49449;48.800;9.534;2023-04-05T01:57:16;99045.56;;;2.48;34.48
63321;BME280;49449;48.800;9.534;2023-04-05T01:59:44;99048.81;;;2.51;34.71
63321;BME280;49449;48.800;9.534;2023-04-05T02:02:13;99039.38;;;2.49;33.98
63321;BME280;49449;48.800;9.534;2023-04-05T02:04:41;99033.81;;;2.44;33.71
63321;BME280;49449;48.800;9.534;2023-04-05T02:07:08;99032.34;;;2.34;33.78
63321;BME280;49449;48.800;9.534;2023-04-05T02:09:36;99030.25;;;2.37;33.83
63321;BME280;49449;48.800;9.534;2023-04-05T02:12:04;99029.06;;;2.32;33.91
63321;BME280;49449;48.800;9.534;2023-04-05T02:14:32;99033.00;;;2.27;35.10
63321;BME280;49449;48.800;9.534;2023-04-05T02:17:00;99031.69;;;2.23;34.77
63321;BME280;49449;48.800;9.534;2023-04-05T02:19:30;99035.25;;;2.22;34.41
63321;BME280;49449;48.800;9.534;2023-04-05T02:22:02;99030.34;;;2.19;35.32
63321;BME280;49449;48.800;9.534;2023-04-05T02:24:30;99028.09;;;2.16;34.49
63321;BME280;49449;48.800;9.534;2023-04-05T02:26:58;99041.78;;;2.18;34.75
63321;BME280;49449;48.800;9.534;2023-04-05T02:29:26;99042.59;;;2.19;34.51
63321;BME280;49449;48.800;9.534;2023-04-05T02:31:54;99034.13;;;2.17;34.84
63321;BME280;49449;48.800;9.534;2023-04-05T02:34:22;99031.66;;;2.15;34.92
63321;BME280;49449;48.800;9.534;2023-04-05T02:36:51;99031.50;;;2.17;34.43
63321;BME280;49449;48.800;9.534;2023-04-05T02:39:18;99029.03;;;2.07;34.45
63321;BME280;49449;48.800;9.534;2023-04-05T02:41:46;99025.47;;;2.08;34.06
63321;BME280;49449;48.800;9.534;2023-04-05T02:44:14;99033.75;;;2.03;34.87
63321;BME280;49449;48.800;9.534;2023-04-05T02:46:42;99026.59;;;1.97;35.18
63321;BME280;49449;48.800;9.534;2023-04-05T02:49:10;99027.09;;;2.01;34.66
63321;BME280;49449;48.800;9.534;2023-04-05T02:51:37;99015.34;;;1.97;34.73
63321;BME280;49449;48.800;9.534;2023-04-05T02:54:06;99019.09;;;2.02;34.22
63321;BME280;49449;48.800;9.534;2023-04-05T02:56:34;99018.31;;;2.02;34.21
63321;BME280;49449;48.800;9.534;2023-04-05T02:59:02;99026.94;;;2.02;35.28
63321;BME280;49449;48.800;9.534;2023-04-05T03:01:30;99019.41;;;1.99;34.92
63321;BME280;49449;48.800;9.534;2023-04-05T03:03:58;99019.41;;;1.99;34.89
63321;BME280;49449;48.800;9.534;2023-04-05T03:06:26;99011.91;;;1.96;34.70
63321;BME280;49449;48.800;9.534;2023-04-05T03:08:54;99020.56;;;1.97;34.35
63321;BME280;49449;48.800;9.534;2023-04-05T03:11:23;99017.13;;;1.96;34.53
63321;BME280;49449;48.800;9.534;2023-04-05T03:13:51;99008.81;;;1.92;35.24
63321;BME280;49449;48.800;9.534;2023-04-05T03:16:18;99017.78;;;1.90;34.89
63321;BME280;49449;48.800;9.534;2023-04-05T03:18:46;98999.38;;;1.91;34.44
63321;BME280;49449;48.800;9.534;2023-04-05T03:21:14;99004.75;;;1.90;34.61
63321;BME280;49449;48.800;9.534;2023-04-05T03:23:43;99005.22;;;1.85;35.07
63321;BME280;49449;48.800;9.534;2023-04-05T03:26:12;99002.13;;;1.82;34.68
63321;BME280;49449;48.800;9.534;2023-04-05T03:28:41;99008.47;;;1.79;35.13
63321;BME280;49449;48.800;9.534;2023-04-05T03:31:11;99011.38;;;1.76;35.54
63321;BME280;49449;48.800;9.534;2023-04-05T03:33:39;99016.44;;;1.78;35.14
63321;BME280;49449;48.800;9.534;2023-04-05T03:36:07;99002.09;;;1.73;35.03
63321;BME280;49449;48.800;9.534;2023-04-05T03:38:35;99006.47;;;1.73;35.45
63321;BME280;49449;48.800;9.534;2023-04-05T03:41:03;99006.00;;;1.69;34.71
63321;BME280;49449;48.800;9.534;2023-04-05T03:43:32;99007.78;;;1.69;35.83
63321;BME280;49449;48.800;9.534;2023-04-05T03:46:01;99008.75;;;1.68;36.06
63321;BME280;49449;48.800;9.534;2023-04-05T03:48:29;99001.56;;;1.62;36.66
63321;BME280;49449;48.800;9.534;2023-04-05T03:50:56;99001.06;;;1.58;35.66
63321;BME280;49449;48.800;9.534;2023-04-05T03:53:24;99002.53;;;1.61;35.71
63321;BME280;49449;48.800;9.534;2023-04-05T03:55:55;99000.94;;;1.60;35.73
63321;BME280;49449;48.800;9.534;2023-04-05T03:58:24;99002.84;;;1.58;35.31
63321;BME280;49449;48.800;9.534;2023-04-05T04:00:52;98996.19;;;1.55;35.63
63321;BME280;49449;48.800;9.534;2023-04-05T04:03:23;99002.34;;;1.54;35.81
63321;BME280;49449;48.800;9.534;2023-04-05T04:05:51;99008.84;;;1.50;35.18
63321;BME280;49449;48.800;9.534;2023-04-05T04:08:19;99007.38;;;1.47;35.66
63321;BME280;49449;48.800;9.534;2023-04-05T04:10:47;99009.16;;;1.47;35.62
63321;BME280;49449;48.800;9.534;2023-04-05T04:13:15;99003.13;;;1.46;35.58
63321;BME280;49449;48.800;9.534;2023-04-05T04:15:44;99005.91;;;1.45;35.66
63321;BME280;49449;48.800;9.534;2023-04-05T04:18:13;99011.75;;;1.47;35.59
63321;BME280;49449;48.800;9.534;2023-04-05T04:20:42;99013.56;;;1.46;35.63
63321;BME280;49449;48.800;9.534;2023-04-05T04:23:10;99011.25;;;1.43;35.43
63321;BME280;49449;48.800;9.534;2023-04-05T04:25:39;99013.97;;;1.42;35.13
63321;BME280;49449;48.800;9.534;2023-04-05T04:28:11;99014.84;;;1.42;35.21
63321;BME280;49449;48.800;9.534;2023-04-05T04:30:43;99010.44;;;1.43;35.46
63321;BME280;49449;48.800;9.534;2023-04-05T04:33:12;99018.69;;;1.38;35.96
63321;BME280;49449;48.800;9.534;2023-04-05T04:35:39;99016.28;;;1.37;35.37
63321;BME280;49449;48.800;9.534;2023-04-05T04:38:09;99014.63;;;1.35;35.29
63321;BME280;49449;48.800;9.534;2023-04-05T04:40:44;99013.97;;;1.33;35.71
63321;BME280;49449;48.800;9.534;2023-04-05T04:43:14;99006.63;;;1.29;35.22
63321;BME280;49449;48.800;9.534;2023-04-05T04:45:44;99013.75;;;1.27;35.58
63321;BME280;49449;48.800;9.534;2023-04-05T04:48:13;99014.72;;;1.26;35.22
63321;BME280;49449;48.800;9.534;2023-04-05T04:50:42;99014.06;;;1.24;36.07
63321;BME280;49449;48.800;9.534;2023-04-05T04:53:12;99014.91;;;1.24;35.30
63321;BME280;49449;48.800;9.534;2023-04-05T04:55:43;99015.72;;;1.25;35.62
63321;BME280;49449;48.800;9.534;2023-04-05T04:58:11;99014.06;;;1.24;35.74
63321;BME280;49449;48.800;9.534;2023-04-05T05:00:41;99016.16;;;1.20;36.19
63321;BME280;49449;48.800;9.534;2023-04-05T05:03:10;99016.00;;;1.22;35.63
63321;BME280;49449;48.800;9.534;2023-04-05T05:05:41;99013.41;;;1.22;36.33
63321;BME280;49449;48.800;9.534;2023-04-05T05:08:11;99012.59;;;1.21;35.97
63321;BME280;49449;48.800;9.534;2023-04-05T05:10:39;99021.22;;;1.22;35.88
63321;BME280;49449;48.800;9.534;2023-04-05T05:13:07;99015.88;;;1.23;36.12
63321;BME280;49449;48.800;9.534;2023-04-05T05:15:38;99013.13;;;1.25;35.66
63321;BME280;49449;48.800;9.534;2023-04-05T05:18:06;99018.81;;;1.28;35.43
63321;BME280;49449;48.800;9.534;2023-04-05T05:20:34;99026.47;;;1.30;35.58
63321;BME280;49449;48.800;9.534;2023-04-05T05:23:02;99020.97;;;1.33;35.11
63321;BME280;49449;48.800;9.534;2023-04-05T05:25:32;99024.38;;;1.33;35.99
63321;BME280;49449;48.800;9.534;2023-04-05T05:27:59;99013.31;;;1.31;36.04
63321;BME280;49449;48.800;9.534;2023-04-05T05:30:27;99020.63;;;1.36;35.35
63321;BME280;49449;48.800;9.534;2023-04-05T05:32:55;99020.19;;;1.41;35.88
63321;BME280;49449;48.800;9.534;2023-04-05T05:35:24;99021.78;;;1.42;35.78
63321;BME280;49449;48.800;9.534;2023-04-05T05:37:53;99020.06;;;1.50;34.79
63321;BME280;49449;48.800;9.534;2023-04-05T05:40:20;99021.44;;;1.63;34.39
63321;BME280;49449;48.800;9.534;2023-04-05T05:42:49;99023.41;;;1.69;33.67
63321;BME280;49449;48.800;9.534;2023-04-05T05:45:17;99026.06;;;1.77;35.39
63321;BME280;49449;48.800;9.534;2023-04-05T05:47:45;99037.81;;;1.89;35.04
63321;BME280;49449;48.800;9.534;2023-04-05T05:50:13;99038.16;;;2.03;34.44
63321;BME280;49449;48.800;9.534;2023-04-05T05:52:42;99027.25;;;2.16;34.40
63321;BME280;49449;48.800;9.534;2023-04-05T05:55:10;99036.91;;;2.32;33.73
63321;BME280;49449;48.800;9.534;2023-04-05T05:57:38;99031.53;;;2.41;33.89
63321;BME280;49449;48.800;9.534;2023-04-05T06:00:08;99031.56;;;2.49;33.65
63321;BME280;49449;48.800;9.534;2023-04-05T06:02:37;99024.34;;;2.60;33.27
63321;BME280;49449;48.800;9.534;2023-04-05T06:05:05;99030.06;;;2.72;33.50
63321;BME280;49449;48.800;9.534;2023-04-05T06:07:35;99023.69;;;2.82;33.04
63321;BME280;49449;48.800;9.534;2023-04-05T06:10:03;99023.38;;;2.94;32.90
63321;BME280;49449;48.800;9.534;2023-04-05T06:12:31;99013.53;;;3.04;33.57
63321;BME280;49449;48.800;9.534;2023-04-05T06:15:00;99019.53;;;3.21;33.47
63321;BME280;49449;48.800;9.534;2023-04-05T06:17:29;99019.03;;;3.34;33.38
63321;BME280;49449;48.800;9.534;2023-04-05T06:19:59;99025.19;;;3.49;33.11
63321;BME280;49449;48.800;9.534;2023-04-05T06:22:27;99022.84;;;3.62;32.67
63321;BME280;49449;48.800;9.534;2023-04-05T06:24:55;99027.19;;;3.78;32.80
63321;BME280;49449;48.800;9.534;2023-04-05T06:27:23;99029.25;;;3.91;32.53
63321;BME280;49449;48.800;9.534;2023-04-05T06:29:50;99034.72;;;4.05;32.22
63321;BME280;49449;48.800;9.534;2023-04-05T06:32:20;99028.00;;;4.10;32.36
63321;BME280;49449;48.800;9.534;2023-04-05T06:34:50;99024.34;;;4.19;32.14
63321;BME280;49449;48.800;9.534;2023-04-05T06:37:19;99022.94;;;4.32;31.90
63321;BME280;49449;48.800;9.534;2023-04-05T06:39:46;99029.72;;;4.41;32.04
63321;BME280;49449;48.800;9.534;2023-04-05T06:42:14;99029.59;;;4.57;31.55
63321;BME280;49449;48.800;9.534;2023-04-05T06:44:42;99032.63;;;4.69;31.51
63321;BME280;49449;48.800;9.534;2023-04-05T06:47:10;99030.03;;;4.84;31.52
63321;BME280;49449;48.800;9.534;2023-04-05T06:49:37;99032.69;;;4.99;31.52
63321;BME280;49449;48.800;9.534;2023-04-05T06:52:06;99026.94;;;5.04;31.85
63321;BME280;49449;48.800;9.534;2023-04-05T06:54:36;99022.97;;;5.08;32.27
63321;BME280;49449;48.800;9.534;2023-04-05T06:57:04;99028.84;;;5.25;38.90
63321;BME280;49449;48.800;9.534;2023-04-05T06:59:32;99029.03;;;5.53;37.73
63321;BME280;49449;48.800;9.534;2023-04-05T07:02:00;99034.50;;;5.58;35.09
63321;BME280;49449;48.800;9.534;2023-04-05T07:04:27;99021.22;;;5.60;33.29
63321;BME280;49449;48.800;9.534;2023-04-05T07:06:59;99027.00;;;5.70;32.69
63321;BME280;49449;48.800;9.534;2023-04-05T07:09:29;99024.34;;;5.85;31.41
63321;BME280;49449;48.800;9.534;2023-04-05T07:11:58;99024.13;;;6.01;32.44
63321;BME280;49449;48.800;9.534;2023-04-05T07:14:28;99016.63;;;6.20;31.52
63321;BME280;49449;48.800;9.534;2023-04-05T07:16:57;99023.75;;;6.26;30.72
63321;BME280;49449;48.800;9.534;2023-04-05T07:19:24;99022.28;;;6.38;30.24
63321;BME280;49449;48.800;9.534;2023-04-05T07:21:52;99024.84;;;6.53;31.26
63321;BME280;49449;48.800;9.534;2023-04-05T07:24:20;99013.53;;;6.53;30.54
63321;BME280;49449;48.800;9.534;2023-04-05T07:26:49;99016.66;;;6.63;29.63
63321;BME280;49449;48.800;9.534;2023-04-05T07:29:17;99012.88;;;6.72;29.38
63321;BME280;49449;48.800;9.534;2023-04-05T07:31:45;99016.72;;;6.76;30.06
63321;BME280;49449;48.800;9.534;2023-04-05T07:34:13;99020.44;;;6.82;30.80
63321;BME280;49449;48.800;9.534;2023-04-05T07:36:40;99020.88;;;6.86;29.72
63321;BME280;49449;48.800;9.534;2023-04-05T07:39:08;99019.56;;;7.03;30.80
63321;BME280;49449;48.800;9.534;2023-04-05T07:41:36;99018.47;;;7.26;30.04
63321;BME280;49449;48.800;9.534;2023-04-05T07:44:05;99016.91;;;7.38;29.44
63321;BME280;49449;48.800;9.534;2023-04-05T07:46:33;99013.72;;;7.43;29.94
63321;BME280;49449;48.800;9.534;2023-04-05T07:49:01;99015.44;;;7.64;30.33
63321;BME280;49449;48.800;9.534;2023-04-05T07:51:29;99010.63;;;7.81;28.09
63321;BME280;49449;48.800;9.534;2023-04-05T07:53:57;99011.69;;;7.93;29.08
63321;BME280;49449;48.800;9.534;2023-04-05T07:56:27;99014.38;;;8.06;28.52
63321;BME280;49449;48.800;9.534;2023-04-05T07:58:55;99011.75;;;8.13;26.69
63321;BME280;49449;48.800;9.534;2023-04-05T08:01:24;99010.97;;;8.32;27.07
63321;BME280;49449;48.800;9.534;2023-04-05T08:03:53;99007.53;;;8.45;26.21
63321;BME280;49449;48.800;9.534;2023-04-05T08:06:22;99002.69;;;8.62;26.20
63321;BME280;49449;48.800;9.534;2023-04-05T08:08:51;99006.09;;;8.56;26.44
63321;BME280;49449;48.800;9.534;2023-04-05T08:11:20;99009.94;;;8.73;24.08
63321;BME280;49449;48.800;9.534;2023-04-05T08:13:48;99007.16;;;8.82;23.53
63321;BME280;49449;48.800;9.534;2023-04-05T08:16:16;99008.75;;;8.96;23.41
63321;BME280;49449;48.800;9.534;2023-04-05T08:18:46;99004.06;;;9.11;24.61
63321;BME280;49449;48.800;9.534;2023-04-05T08:21:14;99006.25;;;9.15;25.15
63321;BME280;49449;48.800;9.534;2023-04-05T08:23:41;99000.97;;;9.35;24.10
63321;BME280;49449;48.800;9.534;2023-04-05T08:26:09;99002.34;;;9.44;22.63
63321;BME280;49449;48.800;9.534;2023-04-05T08:28:37;98995.63;;;9.48;21.73
63321;BME280;49449;48.800;9.534;2023-04-05T08:31:05;99002.69;;;9.61;22.59
63321;BME280;49449;48.800;9.534;2023-04-05T08:33:32;98998.91;;;9.43;23.27
63321;BME280;49449;48.800;9.534;2023-04-05T08:36:04;99001.06;;;9.60;22.67
63321;BME280;49449;48.800;9.534;2023-04-05T08:38:33;98995.84;;;9.92;20.70
63321;BME280;49449;48.800;9.534;2023-04-05T08:41:07;98990.88;;;10.09;22.62
63321;BME280;49449;48.800;9.534;2023-04-05T08:43:39;98998.81;;;10.09;21.11
63321;BME280;49449;48.800;9.534;2023-04-05T08:46:13;98994.72;;;10.13;20.06
63321;BME280;49449;48.800;9.534;2023-04-05T08:48:41;98995.84;;;10.23;19.79
63321;BME280;49449;48.800;9.534;2023-04-05T08:51:10;98994.81;;;10.31;22.98
63321;BME280;49449;48.800;9.534;2023-04-05T08:53:38;98995.31;;;10.40;20.22
63321;BME280;49449;48.800;9.534;2023-04-05T08:56:06;99001.66;;;10.39;19.54
63321;BME280;49449;48.800;9.534;2023-04-05T08:58:36;98988.19;;;10.47;20.31
63321;BME280;49449;48.800;9.534;2023-04-05T09:01:05;98989.56;;;10.50;18.56
63321;BME280;49449;48.800;9.534;2023-04-05T09:03:35;98993.47;;;10.47;18.12
63321;BME280;49449;48.800;9.534;2023-04-05T09:06:06;98983.56;;;10.36;18.07
63321;BME280;49449;48.800;9.534;2023-04-05T09:08:37;98985.00;;;10.38;19.58
63321;BME280;49449;48.800;9.534;2023-04-05T09:11:05;98987.88;;;10.55;19.28
63321;BME280;49449;48.800;9.534;2023-04-05T09:13:33;98991.66;;;10.41;18.39
63321;BME280;49449;48.800;9.534;2023-04-05T09:16:00;98997.47;;;9.93;16.82
63321;BME280;49449;48.800;9.534;2023-04-05T09:18:28;98990.44;;;9.73;17.17
63321;BME280;49449;48.800;9.534;2023-04-05T09:21:01;98990.75;;;9.97;17.23
63321;BME280;49449;48.800;9.534;2023-04-05T09:23:30;98989.59;;;9.86;17.27
63321;BME280;49449;48.800;9.534;2023-04-05T09:25:59;98995.06;;;9.91;17.44
63321;BME280;49449;48.800;9.534;2023-04-05T09:28:39;98989.03;;;9.71;17.31
63321;BME280;49449;48.800;9.534;2023-04-05T09:31:08;98980.53;;;9.62;17.87
63321;BME280;49449;48.800;9.534;2023-04-05T09:33:36;98981.75;;;9.66;18.36
63321;BME280;49449;48.800;9.534;2023-04-05T09:36:04;98982.91;;;9.83;18.42
63321;BME280;49449;48.800;9.534;2023-04-05T09:38:50;98995.72;;;10.12;18.22
63321;BME280;49449;48.800;9.534;2023-04-05T09:41:20;98989.97;;;9.90;17.97
63321;BME280;49449;48.800;9.534;2023-04-05T09:43:48;98973.03;;;9.59;17.63
63321;BME280;49449;48.800;9.534;2023-04-05T09:46:28;98979.84;;;9.41;18.48
63321;BME280;49449;48.800;9.534;2023-04-05T09:48:56;98980.81;;;9.92;18.08
63321;BME280;49449;48.800;9.534;2023-04-05T09:51:31;98977.31;;;10.05;17.65
63321;BME280;49449;48.800;9.534;2023-04-05T09:54:01;98966.63;;;9.93;18.08
63321;BME280;49449;48.800;9.534;2023-04-05T09:56:32;98978.53;;;10.02;17.84
63321;BME280;49449;48.800;9.534;2023-04-05T09:59:01;98979.50;;;10.08;17.42
63321;BME280;49449;48.800;9.534;2023-04-05T10:01:30;98973.13;;;10.22;17.86
63321;BME280;49449;48.800;9.534;2023-04-05T10:03:58;98971.50;;;10.47;18.10
63321;BME280;49449;48.800;9.534;2023-04-05T10:06:36;98970.31;;;10.68;23.80
63321;BME280;49449;48.800;9.534;2023-04-05T10:09:05;98961.44;;;10.80;21.56
63321;BME280;49449;48.800;9.534;2023-04-05T10:11:35;98958.78;;;11.06;20.12
63321;BME280;49449;48.800;9.534;2023-04-05T10:14:04;98948.19;;;11.24;19.58
63321;BME280;49449;48.800;9.534;2023-04-05T10:16:36;98959.56;;;11.43;18.84
63321;BME280;49449;48.800;9.534;2023-04-05T10:19:06;98946.91;;;11.45;16.51
63321;BME280;49449;48.800;9.534;2023-04-05T10:21:40;98946.75;;;11.59;18.22
63321;BME280;49449;48.800;9.534;2023-04-05T10:24:16;98950.50;;;11.81;18.30
63321;BME280;49449;48.800;9.534;2023-04-05T10:26:54;98949.09;;;11.97;18.07
63321;BME280;49449;48.800;9.534;2023-04-05T10:29:34;98939.91;;;12.11;17.92
63321;BME280;49449;48.800;9.534;2023-04-05T10:32:05;98939.13;;;12.23;17.54
63321;BME280;49449;48.800;9.534;2023-04-05T10:34:41;98933.50;;;12.31;17.37
63321;BME280;49449;48.800;9.534;2023-04-05T10:37:21;98943.63;;;12.58;17.62
63321;BME280;49449;48.800;9.534;2023-04-05T10:39:50;98940.09;;;12.76;16.38
63321;BME280;49449;48.800;9.534;2023-04-05T10:42:20;98940.31;;;12.74;16.89
63321;BME280;49449;48.800;9.534;2023-04-05T10:44:58;98938.09;;;12.95;17.21
63321;BME280;49449;48.800;9.534;2023-04-05T10:47:31;98937.88;;;12.49;15.31
63321;BME280;49449;48.800;9.534;2023-04-05T10:50:03;98936.53;;;11.62;15.82
63321;BME280;49449;48.800;9.534;2023-04-05T10:52:35;98932.19;;;11.00;15.87
63321;BME280;49449;48.800;9.534;2023-04-05T10:55:04;98930.41;;;10.94;16.59
63321;BME280;49449;48.800;9.534;2023-04-05T10:57:34;98933.16;;;11.06;17.30
63321;BME280;49449;48.800;9.534;2023-04-05T11:00:04;98927.88;;;11.55;18.00
63321;BME280;49449;48.800;9.534;2023-04-05T11:02:32;98926.75;;;11.93;17.68
63321;BME280;49449;48.800;9.534;2023-04-05T11:05:02;98929.91;;;11.53;16.32
63321;BME280;49449;48.800;9.534;2023-04-05T11:07:42;98931.59;;;11.17;16.29
63321;BME280;49449;48.800;9.534;2023-04-05T11:10:15;98945.47;;;10.50;16.22
63321;BME280;49449;48.800;9.534;2023-04-05T11:13:06;98937.25;;;10.58;16.79
63321;BME280;49449;48.800;9.534;2023-04-05T11:15:35;98933.25;;;10.74;16.45
63321;BME280;49449;48.800;9.534;2023-04-05T11:18:08;98921.16;;;10.67;16.63
63321;BME280;49449;48.800;9.534;2023-04-05T11:20:45;98914.66;;;10.44;17.02
63321;BME280;49449;48.800;9.534;2023-04-05T11:23:15;98920.25;;;10.29;16.80
63321;BME280;49449;48.800;9.534;2023-04-05T11:25:46;98914.84;;;10.42;17.15
63321;BME280;49449;48.800;9.534;2023-04-05T11:28:27;98910.19;;;10.19;17.06
63321;BME280;49449;48.800;9.534;2023-04-05T11:30:56;98910.53;;;10.48;17.35
63321;BME280;49449;48.800;9.534;2023-04-05T11:33:54;98903.94;;;10.57;17.25
63321;BME280;49449;48.800;9.534;2023-04-05T11:36:46;98892.81;;;10.92;17.89
63321;BME280;49449;48.800;9.534;2023-04-05T11:39:22;98893.19;;;11.14;16.82
63321;BME280;49449;48.800;9.534;2023-04-05T11:41:58;98888.78;;;11.38;17.77
63321;BME280;49449;48.800;9.534;2023-04-05T11:44:29;98894.00;;;10.96;16.95
63321;BME280;49449;48.800;9.534;2023-04-05T11:46:59;98896.78;;;10.83;16.80
63321;BME280;49449;48.800;9.534;2023-04-05T11:49:30;98894.66;;;10.92;16.95
63321;BME280;49449;48.800;9.534;2023-04-05T11:52:03;98894.09;;;10.46;17.25
63321;BME280;49449;48.800;9.534;2023-04-05T11:54:36;98887.50;;;10.55;17.41
63321;BME280;49449;48.800;9.534;2023-04-05T11:57:05;98888.94;;;10.95;17.55
63321;BME280;49449;48.800;9.534;2023-04-05T11:59:34;98876.72;;;11.12;17.66
63321;BME280;49449;48.800;9.534;2023-04-05T12:02:03;98871.06;;;11.27;17.69
63321;BME280;49449;48.800;9.534;2023-04-05T12:04:33;98879.44;;;11.24;18.37
63321;BME280;49449;48.800;9.534;2023-04-05T12:07:08;98877.19;;;11.40;18.74
63321;BME280;49449;48.800;9.534;2023-04-05T12:10:02;98878.22;;;11.38;19.72
63321;BME280;49449;48.800;9.534;2023-04-05T12:12:37;98876.53;;;11.44;18.72
63321;BME280;49449;48.800;9.534;2023-04-05T12:15:08;98876.63;;;11.49;18.72
63321;BME280;49449;48.800;9.534;2023-04-05T12:17:42;98870.31;;;11.50;17.68
63321;BME280;49449;48.800;9.534;2023-04-05T12:20:11;98867.75;;;11.44;18.09
63321;BME280;49449;48.800;9.534;2023-04-05T12:22:41;98868.91;;;11.17;18.07
63321;BME280;49449;48.800;9.534;2023-04-05T12:25:10;98860.38;;;11.34;17.79
63321;BME280;49449;48.800;9.534;2023-04-05T12:27:38;98853.19;;;11.53;18.45
63321;BME280;49449;48.800;9.534;2023-04-05T12:30:12;98855.63;;;11.66;17.72
63321;BME280;49449;48.800;9.534;2023-04-05T12:32:43;98855.59;;;11.43;17.22
63321;BME280;49449;48.800;9.534;2023-04-05T12:35:12;98854.31;;;11.45;17.93
63321;BME280;49449;48.800;9.534;2023-04-05T12:37:42;98850.28;;;11.43;16.43
63321;BME280;49449;48.800;9.534;2023-04-05T12:40:10;98851.44;;;11.47;18.56
63321;BME280;49449;48.800;9.534;2023-04-05T12:42:39;98844.66;;;11.51;19.91
63321;BME280;49449;48.800;9.534;2023-04-05T12:45:11;98843.66;;;11.52;19.04
63321;BME280;49449;48.800;9.534;2023-04-05T12:47:51;98838.53;;;11.38;18.88
63321;BME280;49449;48.800;9.534;2023-04-05T12:50:24;98841.88;;;11.34;17.69
63321;BME280;49449;48.800;9.534;2023-04-05T12:52:54;98834.91;;;11.21;17.72
63321;BME280;49449;48.800;9.534;2023-04-05T12:55:23;98836.00;;;11.32;17.51
63321;BME280;49449;48.800;9.534;2023-04-05T12:57:51;98823.75;;;11.19;17.80
63321;BME280;49449;48.800;9.534;2023-04-05T13:00:21;98829.16;;;11.24;17.63
63321;BME280;49449;48.800;9.534;2023-04-05T13:02:53;98814.09;;;11.13;17.87
63321;BME280;49449;48.800;9.534;2023-04-05T13:05:23;98814.66;;;11.15;18.51
63321;BME280;49449;48.800;9.534;2023-04-05T13:07:51;98811.00;;;11.16;17.42
63321;BME280;49449;48.800;9.534;2023-04-05T13:10:20;98813.75;;;11.21;16.50
63321;BME280;49449;48.800;9.534;2023-04-05T13:12:48;98802.41;;;10.84;17.03
63321;BME280;49449;48.800;9.534;2023-04-05T13:15:17;98804.47;;;10.81;17.91
63321;BME280;49449;48.800;9.534;2023-04-05T13:17:46;98797.53;;;10.87;17.67
63321;BME280;49449;48.800;9.534;2023-04-05T13:20:16;98807.84;;;11.07;17.49
63321;BME280;49449;48.800;9.534;2023-04-05T13:22:44;98813.88;;;11.14;16.88